EGEO/OBN METAR and TAF weather

Enter ICAO airport designator
Station Type Date Time Source
EGEO METAR 2022/01/17 15:50 UTC NOAA

EGEO 171550Z 18004KT 9999 VCSH BKN013 07/05 Q1036


Station Type Date Time Source
EGEO Decoded METAR 2022/01/17 15:50 UTC NOAA

Station name not available
Jan 17, 2022 - 10:50 AM EST / 2022.01.17 1550 UTC
Wind: from the S (180 degrees) at 5 MPH (4 KT):0
Visibility: greater than 7 mile(s):0
Sky conditions: mostly cloudy
Weather: showers in the vicinity
Temperature: 44 F (7 C)
Dew Point: 41 F (5 C)
Relative Humidity: 87%
Pressure (altimeter): 30.59 in. Hg (1036 hPa)
ob: EGEO 171550Z 18004KT 9999 VCSH BKN013 07/05 Q1036
cycle: 16

Station Type Date Time Source
EGEO TAF UTC NOAA

Error!

Example: see airport list